Jacumba, CA (91934)

7:44 AM PDT on October 25, 2014 (GMT -0700)
J-town | Change Station
CLOSE
Current Station
Personal Weather Station
Location: Jacumba, CA
Elevation: 2799 ft
Nearby Weather Stations

Elev 2799 ft 32.62 °N, 116.19 °W | Updated 14 minutes ago

Clear
Clear
48.9 °F
Feels Like 49 °F
N
0.0
Wind Variable Wind from West
Gusts 0.0 mph

Today
High -- | Low -- °F
--% Chance of Precip.
Yesterday
High -- | Low -- °F
Precip. -- in
6:56 AM 6:00 PM
Waxing Crescent, 3% visible
Pressure 29.99 in
Visibility -9999.0 miles
Clouds
Windchill 49 °F
Dew Point 41 °F
Humidity 74%
Rainfall 0.00 in
Snow Depth Not available.
UV 0.0 out of 12
Pollen 3.90 out of 12
Air Quality Not available.
Flu Activity Sporadic
METAR KCZZ 251352Z AUTO 05006KT 10/04 A3005 RMK AO1 SLP154 T01000044

More Conditions Fewer Conditions

Pressure 29.99 in
Visibility -9999.0 miles
Clouds
Windchill 49 °F
Dew Point 41 °F
Humidity 74%
Rainfall 0.00 in
Snow Depth Not available.
UV 0.0 out of 12
Pollen 3.90 out of 12
Air Quality Not available.
Flu Activity Sporadic
METAR KCZZ 251352Z AUTO 05006KT 10/04 A3005 RMK AO1 SLP154 T01000044

More Conditions Fewer Conditions

10-Day Weather Forecast

Almanac

Astronomy

Oct. 25, 2014 Rise Set
Actual Time 6:56 AM PDT 6:00 PM PDT
Civil Twilight 6:31 AM PDT 6:25 PM PDT
Nautical Twilight 6:02 AM PDT 6:54 PM PDT
Astronomical Twilight 5:33 AM PDT 7:23 PM PDT
Moon 8:35 AM PDT 7:31 PM PDT
Length of Visible Light 11h 54m
Length of Day
11h 04m
Tomorrow will be 1m 51s shorter.
Waxing Crescent, 3% of the Moon is Illuminated
Today
Waxing Crescent
Oct 30
First Quarter
Nov 6
Full
Nov 14
Last Quarter
Nov 22
New

Today's Extremes

State Highs State Lows

Community

WunderPhotos

Upload Photos

1,764,861 photos uploaded!

Nearby

Snow Depth

Station Depth Elevation
Virginia Lakes Ridge 0 in 9200 ft
Leavitt Lake 1 in 9400 ft
Leavitt Meadows 1 in 7200 ft
Sonora Pass 0 in 8800 ft
Summit Meadow 1 in 9122 ft

Earthquake Activity

City Distance Mag. Time & Date
Running Springs, California 125 miles 3.1 4:07 AM PDT
2014-10-25
Maneadero, Mexico 69 miles 2.5 7:44 AM PDT
2014-10-24
San Felipe, Mexico 89 miles 3.0 11:00 PM PDT
2014-10-23
Brea, California 134 miles 2.9 3:35 PM PDT
2014-10-23
Minimum magnitude displayed is 2.5.

Coastal Water Temperatures

Place Temperature
No Stations Reporting

Nearby Weather Stations